createdAt,value
2022-11-05T00:00:18.228Z,94.20
2022-11-05T00:01:21.433Z,94.06
2022-11-05T00:02:24.647Z,94.04
2022-11-05T00:04:00.446Z,94.11
2022-11-05T00:05:11.174Z,94.35
2022-11-05T00:06:14.167Z,94.27
2022-11-05T00:07:49.199Z,94.24
2022-11-05T00:08:52.267Z,94.25
2022-11-05T00:09:54.944Z,94.29
2022-11-05T00:11:29.534Z,94.23
2022-11-05T00:12:32.370Z,94.27
2022-11-05T00:13:35.162Z,94.33
2022-11-05T00:15:09.789Z,94.39
2022-11-05T00:16:12.743Z,94.42
2022-11-05T00:17:15.477Z,94.33
2022-11-05T00:18:50.126Z,94.28
2022-11-05T00:19:53.061Z,94.29
2022-11-05T00:20:55.928Z,94.29
2022-11-05T00:22:30.623Z,94.17
2022-11-05T00:23:33.524Z,94.17
2022-11-05T00:24:36.352Z,94.13
2022-11-05T00:26:11.270Z,94.06
2022-11-05T00:27:14.009Z,93.91
2022-11-05T00:28:16.674Z,93.86
2022-11-05T00:29:51.342Z,93.85
2022-11-05T00:30:54.308Z,93.90
2022-11-05T00:31:57.075Z,93.89
2022-11-05T00:33:31.691Z,93.84
2022-11-05T00:34:34.523Z,93.84
2022-11-05T00:35:37.270Z,93.83
2022-11-05T00:37:11.984Z,93.53
2022-11-05T00:38:14.801Z,93.18
2022-11-05T00:39:17.656Z,93.29
2022-11-05T00:40:52.471Z,93.20
2022-11-05T00:41:55.297Z,93.19
2022-11-05T00:42:58.421Z,93.03
2022-11-05T00:44:33.935Z,92.77
2022-11-05T00:45:37.059Z,93.01
2022-11-05T00:46:40.029Z,93.06
2022-11-05T00:48:20.731Z,92.98
2022-11-05T00:49:23.464Z,92.98
2022-11-05T00:50:26.412Z,92.92
2022-11-05T00:52:00.907Z,93.06
2022-11-05T00:53:03.855Z,93.00
2022-11-05T00:54:07.246Z,93.06
2022-11-05T00:55:41.967Z,92.99
2022-11-05T00:56:44.773Z,93.04
2022-11-05T00:57:53.605Z,92.99
2022-11-05T00:59:28.176Z,92.93
2022-11-05T01:00:17.711Z,92.96
2022-11-05T01:01:20.843Z,92.88
2022-11-05T01:02:25.155Z,92.95
2022-11-05T01:04:01.763Z,92.78
2022-11-05T01:05:04.580Z,92.54
2022-11-05T01:06:07.354Z,92.62
2022-11-05T01:07:42.051Z,92.57
2022-11-05T01:08:44.974Z,92.43
2022-11-05T01:09:47.810Z,92.52
2022-11-05T01:11:22.435Z,92.48
2022-11-05T01:12:25.584Z,92.47
2022-11-05T01:13:28.367Z,92.54
2022-11-05T01:15:03.082Z,92.55
2022-11-05T01:16:05.868Z,92.53
2022-11-05T01:17:08.525Z,92.60
2022-11-05T01:18:43.210Z,92.55
2022-11-05T01:19:46.004Z,92.60
2022-11-05T01:20:48.850Z,92.68
2022-11-05T01:22:23.440Z,92.63
2022-11-05T01:23:26.979Z,92.65
2022-11-05T01:24:29.889Z,92.66
2022-11-05T01:26:04.796Z,92.69
2022-11-05T01:27:07.554Z,92.66
2022-11-05T01:28:10.406Z,92.66
2022-11-05T01:29:46.101Z,92.65
2022-11-05T01:30:48.919Z,92.57
2022-11-05T01:31:51.691Z,92.59
2022-11-05T01:33:26.335Z,92.47
2022-11-05T01:34:29.501Z,92.53
2022-11-05T01:35:32.538Z,93.17
2022-11-05T01:37:07.253Z,93.26
2022-11-05T01:38:10.035Z,93.20
2022-11-05T01:39:12.739Z,93.14
2022-11-05T01:40:47.484Z,93.19
2022-11-05T01:41:50.269Z,93.22
2022-11-05T01:42:53.291Z,93.23
2022-11-05T01:44:28.838Z,93.30
2022-11-05T01:45:31.780Z,93.30
2022-11-05T01:46:34.877Z,93.36
2022-11-05T01:48:09.667Z,93.35
2022-11-05T01:49:12.537Z,93.31
2022-11-05T01:50:15.490Z,93.31
2022-11-05T01:51:49.980Z,93.35
2022-11-05T01:52:52.805Z,93.46
2022-11-05T01:53:56.202Z,93.51
2022-11-05T01:55:30.748Z,93.54
2022-11-05T01:56:33.477Z,93.53
2022-11-05T01:57:36.284Z,93.50
2022-11-05T01:59:11.016Z,93.51
2022-11-05T02:00:17.487Z,93.51
2022-11-05T02:01:20.346Z,93.51
2022-11-05T02:02:24.248Z,93.50
2022-11-05T02:04:00.997Z,93.41
2022-11-05T02:05:03.645Z,93.45
2022-11-05T02:06:06.522Z,93.41
2022-11-05T02:07:41.435Z,93.40
2022-11-05T02:08:44.046Z,93.35
2022-11-05T02:09:46.923Z,93.43
2022-11-05T02:11:21.372Z,93.59
2022-11-05T02:12:24.133Z,93.57
2022-11-05T02:13:26.742Z,93.60
2022-11-05T02:15:01.342Z,93.60
2022-11-05T02:16:04.179Z,93.57
2022-11-05T02:17:06.943Z,93.90
2022-11-05T02:18:41.463Z,94.05
2022-11-05T02:19:44.371Z,94.16
2022-11-05T02:20:51.942Z,94.29
2022-11-05T02:22:26.645Z,94.36
2022-11-05T02:23:29.306Z,94.72
2022-11-05T02:24:31.957Z,94.72
2022-11-05T02:26:06.738Z,94.77
2022-11-05T02:27:09.811Z,94.99
2022-11-05T02:28:12.531Z,95.14
2022-11-05T02:29:47.201Z,95.17
2022-11-05T02:30:49.954Z,95.27
2022-11-05T02:31:52.748Z,95.12
2022-11-05T02:33:27.535Z,95.00
2022-11-05T02:34:30.363Z,94.97
2022-11-05T02:35:33.243Z,95.02
2022-11-05T02:37:07.715Z,95.13
2022-11-05T02:38:10.624Z,95.11
2022-11-05T02:39:13.440Z,95.08
2022-11-05T02:40:48.330Z,95.07
2022-11-05T02:41:51.078Z,95.13
2022-11-05T02:43:01.825Z,95.14
2022-11-05T02:44:37.305Z,95.15
2022-11-05T02:45:40.460Z,95.13
2022-11-05T02:46:43.936Z,95.08
2022-11-05T02:48:18.674Z,95.05
2022-11-05T02:49:21.493Z,95.08
2022-11-05T02:50:24.326Z,95.07
2022-11-05T02:51:58.931Z,95.03
2022-11-05T02:53:01.546Z,95.08
2022-11-05T02:54:04.937Z,95.10
2022-11-05T02:55:39.816Z,95.04
2022-11-05T02:56:42.792Z,95.03
2022-11-05T02:57:45.538Z,94.97
2022-11-05T02:59:20.151Z,94.97
2022-11-05T03:00:17.941Z,94.98
2022-11-05T03:01:21.178Z,94.88
2022-11-05T03:02:25.235Z,94.85
2022-11-05T03:04:01.335Z,94.83
2022-11-05T03:05:04.331Z,94.85
2022-11-05T03:06:07.015Z,94.81
2022-11-05T03:07:41.914Z,94.80
2022-11-05T03:08:44.845Z,94.81
2022-11-05T03:09:47.877Z,94.76
2022-11-05T03:11:22.477Z,94.72
2022-11-05T03:12:25.303Z,94.70
2022-11-05T03:13:28.055Z,94.73
2022-11-05T03:15:02.853Z,94.70
2022-11-05T03:16:05.661Z,94.71
2022-11-05T03:17:08.763Z,94.67
2022-11-05T03:18:43.443Z,94.68
2022-11-05T03:19:46.549Z,94.65
2022-11-05T03:20:49.365Z,94.65
2022-11-05T03:22:23.991Z,94.62
2022-11-05T03:23:26.782Z,94.66
2022-11-05T03:24:29.614Z,94.66
2022-11-05T03:26:04.430Z,94.67
2022-11-05T03:27:07.143Z,94.67
2022-11-05T03:28:10.052Z,94.74
2022-11-05T03:29:44.845Z,94.76
2022-11-05T03:30:47.823Z,94.98
2022-11-05T03:31:50.669Z,94.98
2022-11-05T03:33:25.327Z,95.10
2022-11-05T03:34:28.108Z,95.18
2022-11-05T03:35:30.857Z,95.34
2022-11-05T03:37:05.786Z,95.35
2022-11-05T03:38:08.621Z,95.41
2022-11-05T03:39:11.373Z,95.33
2022-11-05T03:40:46.056Z,95.39
2022-11-05T03:41:48.781Z,95.43
2022-11-05T03:42:51.851Z,95.47
2022-11-05T03:44:27.291Z,95.53
2022-11-05T03:45:30.132Z,95.39
2022-11-05T03:46:32.971Z,95.39
2022-11-05T03:48:07.697Z,95.43
2022-11-05T03:49:11.108Z,95.41
2022-11-05T03:50:14.049Z,95.46
2022-11-05T03:51:53.715Z,95.48
2022-11-05T03:52:56.708Z,95.51
2022-11-05T03:53:59.940Z,95.45
2022-11-05T03:55:34.624Z,95.54
2022-11-05T03:56:37.487Z,95.50
2022-11-05T03:57:40.575Z,95.44
2022-11-05T03:59:15.107Z,95.59
2022-11-05T04:00:17.576Z,95.46
2022-11-05T04:01:20.593Z,95.46
2022-11-05T04:02:24.843Z,95.66
2022-11-05T04:04:01.219Z,95.65
2022-11-05T04:05:03.954Z,95.58
2022-11-05T04:06:06.688Z,95.63
2022-11-05T04:07:43.488Z,95.65
2022-11-05T04:08:53.473Z,95.60
2022-11-05T04:09:56.375Z,95.62
2022-11-05T04:11:31.583Z,95.57
2022-11-05T04:12:34.318Z,95.51
2022-11-05T04:13:37.272Z,95.42
2022-11-05T04:15:11.902Z,95.34
2022-11-05T04:16:14.653Z,95.42
2022-11-05T04:17:17.603Z,95.34
2022-11-05T04:18:52.194Z,95.39
2022-11-05T04:19:54.809Z,95.36
2022-11-05T04:20:57.510Z,95.35
2022-11-05T04:22:32.207Z,95.30
2022-11-05T04:23:35.170Z,95.25
2022-11-05T04:24:38.036Z,95.31
2022-11-05T04:26:12.698Z,95.27
2022-11-05T04:27:15.467Z,95.30
2022-11-05T04:28:18.406Z,95.27
2022-11-05T04:29:59.423Z,95.16
2022-11-05T04:31:02.370Z,95.15
2022-11-05T04:32:05.234Z,95.13
2022-11-05T04:33:40.057Z,95.09
2022-11-05T04:34:42.987Z,95.18
2022-11-05T04:35:45.876Z,95.21
2022-11-05T04:37:20.717Z,95.14
2022-11-05T04:38:23.533Z,95.15
2022-11-05T04:39:26.281Z,95.15
2022-11-05T04:41:01.096Z,95.14
2022-11-05T04:42:04.013Z,95.11
2022-11-05T04:43:12.055Z,95.11
2022-11-05T04:44:50.264Z,95.12
2022-11-05T04:45:53.087Z,95.13
2022-11-05T04:46:56.103Z,95.19
2022-11-05T04:48:31.199Z,95.19
2022-11-05T04:49:34.034Z,95.22
2022-11-05T04:50:36.960Z,95.24
2022-11-05T04:52:11.806Z,95.21
2022-11-05T04:53:15.087Z,95.25
2022-11-05T04:54:17.851Z,95.24
2022-11-05T04:55:52.556Z,95.19
2022-11-05T04:56:55.725Z,95.23
2022-11-05T04:57:58.853Z,95.20
2022-11-05T04:59:33.244Z,95.22
2022-11-05T05:00:18.212Z,95.18
2022-11-05T05:01:21.960Z,95.21
2022-11-05T05:02:25.979Z,95.19
2022-11-05T05:04:01.463Z,95.49
2022-11-05T05:05:47.088Z,95.48
2022-11-05T05:06:55.899Z,95.40
2022-11-05T05:07:58.983Z,95.38
2022-11-05T05:09:33.749Z,95.36
2022-11-05T05:10:36.635Z,95.35
2022-11-05T05:11:39.731Z,95.39
2022-11-05T05:13:15.259Z,95.48
2022-11-05T05:14:18.344Z,95.50
2022-11-05T05:15:21.548Z,95.44
2022-11-05T05:16:56.684Z,95.55
2022-11-05T05:17:59.774Z,95.54
2022-11-05T05:19:02.961Z,95.57
2022-11-05T05:20:38.202Z,95.62
2022-11-05T05:21:41.260Z,95.57
2022-11-05T05:22:44.478Z,95.63
2022-11-05T05:24:19.208Z,95.79
2022-11-05T05:25:22.089Z,95.67
2022-11-05T05:26:25.266Z,95.64
2022-11-05T05:28:00.289Z,95.60
2022-11-05T05:29:03.460Z,95.55
2022-11-05T05:30:06.642Z,95.56
2022-11-05T05:31:45.624Z,95.54
2022-11-05T05:32:48.548Z,95.50
2022-11-05T05:33:52.236Z,95.46
2022-11-05T05:35:27.399Z,95.52
2022-11-05T05:36:30.462Z,95.55
2022-11-05T05:37:33.595Z,95.50
2022-11-05T05:39:08.465Z,95.45
2022-11-05T05:40:11.903Z,95.47
2022-11-05T05:41:15.035Z,95.55
2022-11-05T05:42:49.937Z,95.53
2022-11-05T05:43:53.530Z,95.55
2022-11-05T05:44:56.590Z,95.57
2022-11-05T05:46:31.802Z,95.71
2022-11-05T05:47:34.910Z,95.68
2022-11-05T05:48:37.771Z,95.64
2022-11-05T05:50:13.311Z,95.62
2022-11-05T05:51:16.418Z,95.64
2022-11-05T05:52:19.482Z,95.64
2022-11-05T05:53:55.290Z,95.62
2022-11-05T05:54:58.112Z,95.64
2022-11-05T05:56:00.935Z,95.62
2022-11-05T05:57:35.771Z,95.65
2022-11-05T05:58:39.254Z,95.59
2022-11-05T05:59:42.158Z,95.64
2022-11-05T06:00:17.536Z,95.65
2022-11-05T06:01:25.143Z,95.63
2022-11-05T06:02:29.639Z,95.63
2022-11-05T06:04:06.426Z,95.64
2022-11-05T06:05:09.685Z,95.67
2022-11-05T06:06:12.916Z,95.63
2022-11-05T06:07:48.111Z,95.64
2022-11-05T06:08:51.175Z,95.62
2022-11-05T06:09:54.057Z,95.66
2022-11-05T06:11:29.492Z,95.66
2022-11-05T06:12:32.524Z,95.65
2022-11-05T06:13:35.499Z,95.64
2022-11-05T06:15:10.426Z,95.60
2022-11-05T06:16:20.921Z,95.52
2022-11-05T06:17:24.311Z,95.57
2022-11-05T06:18:59.130Z,95.53
2022-11-05T06:20:02.175Z,95.53
2022-11-05T06:21:05.584Z,95.51
2022-11-05T06:22:40.663Z,95.49
2022-11-05T06:23:43.572Z,95.52
2022-11-05T06:24:46.401Z,95.51
2022-11-05T06:26:27.563Z,95.45
2022-11-05T06:27:30.578Z,95.51
2022-11-05T06:28:33.475Z,95.45
2022-11-05T06:30:08.561Z,95.40
2022-11-05T06:31:11.771Z,95.45
2022-11-05T06:32:15.006Z,95.44
2022-11-05T06:33:50.346Z,95.47
2022-11-05T06:34:53.415Z,95.45
2022-11-05T06:35:56.533Z,95.41
2022-11-05T06:37:31.732Z,95.38
2022-11-05T06:38:34.460Z,95.39
2022-11-05T06:39:37.450Z,95.40
2022-11-05T06:41:16.418Z,95.42
2022-11-05T06:42:59.883Z,95.39
2022-11-05T06:44:03.564Z,95.39
2022-11-05T06:45:38.880Z,95.39
2022-11-05T06:46:45.775Z,95.41
2022-11-05T06:47:51.216Z,95.37
2022-11-05T06:49:26.290Z,95.33
2022-11-05T06:50:28.930Z,95.35
2022-11-05T06:51:32.172Z,95.37
2022-11-05T06:53:07.213Z,95.30
2022-11-05T06:54:10.991Z,95.35
2022-11-05T06:55:13.925Z,95.35
2022-11-05T06:56:49.175Z,95.39
2022-11-05T06:57:52.104Z,95.38
2022-11-05T06:58:55.247Z,95.34
2022-11-05T07:00:17.653Z,95.41
2022-11-05T07:01:21.472Z,95.37
2022-11-05T07:02:26.001Z,95.41
2022-11-05T07:04:01.947Z,95.46
2022-11-05T07:05:05.188Z,95.43
2022-11-05T07:06:08.567Z,95.44
2022-11-05T07:07:49.585Z,95.40
2022-11-05T07:08:52.788Z,95.46
2022-11-05T07:09:55.871Z,95.43
2022-11-05T07:11:30.850Z,95.41
2022-11-05T07:12:34.094Z,95.37
2022-11-05T07:13:37.226Z,95.36
2022-11-05T07:15:12.131Z,95.45
2022-11-05T07:16:15.163Z,95.45
2022-11-05T07:17:18.145Z,95.42
2022-11-05T07:18:53.066Z,95.44
2022-11-05T07:19:56.128Z,95.44
2022-11-05T07:20:59.409Z,95.41
2022-11-05T07:22:34.282Z,95.47
2022-11-05T07:23:37.358Z,95.49
2022-11-05T07:24:40.438Z,95.52
2022-11-05T07:26:15.654Z,95.53
2022-11-05T07:27:25.207Z,95.50
2022-11-05T07:28:28.316Z,95.51
2022-11-05T07:30:03.274Z,95.52
2022-11-05T07:31:06.279Z,95.50
2022-11-05T07:32:09.287Z,95.52
2022-11-05T07:33:44.366Z,95.60
2022-11-05T07:34:47.437Z,95.52
2022-11-05T07:35:50.385Z,95.51
2022-11-05T07:37:25.487Z,95.50
2022-11-05T07:38:28.297Z,95.51
2022-11-05T07:39:34.260Z,95.44
2022-11-05T07:41:09.446Z,95.52
2022-11-05T07:42:12.685Z,95.56
2022-11-05T07:43:16.669Z,95.57
2022-11-05T07:44:51.829Z,95.63
2022-11-05T07:45:54.694Z,95.71
2022-11-05T07:47:05.402Z,95.64
2022-11-05T07:48:40.682Z,95.66
2022-11-05T07:49:43.731Z,95.65
2022-11-05T07:50:46.842Z,95.65
2022-11-05T07:52:22.000Z,95.65
2022-11-05T07:53:25.060Z,95.61
2022-11-05T07:54:34.193Z,95.62
2022-11-05T07:56:09.335Z,95.72
2022-11-05T07:57:12.325Z,95.75
2022-11-05T07:58:15.382Z,95.76
2022-11-05T07:59:50.299Z,95.92
2022-11-05T08:00:18.173Z,95.92
2022-11-05T08:01:21.953Z,95.87
2022-11-05T08:02:27.540Z,95.95
2022-11-05T08:04:06.777Z,96.15
2022-11-05T08:05:09.701Z,96.00
2022-11-05T08:06:12.937Z,96.10
2022-11-05T08:07:47.859Z,96.19
2022-11-05T08:08:50.824Z,96.08
2022-11-05T08:09:53.831Z,96.17
2022-11-05T08:11:28.977Z,96.20
2022-11-05T08:12:34.254Z,96.29
2022-11-05T08:13:37.381Z,96.56
2022-11-05T08:15:12.228Z,96.57
2022-11-05T08:16:15.338Z,96.55
2022-11-05T08:17:24.191Z,96.48
2022-11-05T08:18:59.166Z,96.25
2022-11-05T08:20:02.142Z,96.34
2022-11-05T08:21:05.575Z,96.18
2022-11-05T08:22:40.395Z,96.17
2022-11-05T08:23:43.394Z,96.05
2022-11-05T08:24:46.409Z,96.16
2022-11-05T08:26:27.953Z,96.00
2022-11-05T08:27:31.157Z,96.02
2022-11-05T08:28:34.423Z,96.09
2022-11-05T08:30:09.689Z,95.87
2022-11-05T08:31:12.620Z,95.98
2022-11-05T08:32:15.682Z,96.16
2022-11-05T08:33:51.243Z,95.90
2022-11-05T08:34:59.946Z,95.83
2022-11-05T08:36:02.932Z,95.69
2022-11-05T08:37:37.883Z,95.83
2022-11-05T08:38:40.772Z,95.70
2022-11-05T08:39:43.844Z,95.63
2022-11-05T08:41:18.862Z,95.35
2022-11-05T08:42:21.616Z,95.27
2022-11-05T08:43:24.509Z,95.15
2022-11-05T08:44:59.680Z,94.82
2022-11-05T08:46:02.500Z,94.74
2022-11-05T08:47:05.636Z,94.82
2022-11-05T08:48:40.898Z,94.47
2022-11-05T08:49:43.925Z,94.32
2022-11-05T08:50:46.711Z,94.69
2022-11-05T08:52:21.491Z,94.02
2022-11-05T08:53:24.399Z,93.47
2022-11-05T08:54:27.440Z,93.44
2022-11-05T08:56:02.271Z,93.46
2022-11-05T08:57:05.171Z,93.26
2022-11-05T08:58:08.233Z,93.24
2022-11-05T08:59:43.135Z,93.32
2022-11-05T09:00:17.766Z,93.32
2022-11-05T09:01:21.094Z,93.33
2022-11-05T09:02:25.502Z,93.35
2022-11-05T09:04:01.912Z,93.23
2022-11-05T09:05:04.814Z,93.22
2022-11-05T09:06:07.552Z,93.15
2022-11-05T09:07:42.561Z,93.05
2022-11-05T09:08:52.591Z,93.02
2022-11-05T09:09:55.391Z,93.04
2022-11-05T09:12:12.221Z,92.40
2022-11-05T09:13:24.543Z,92.61
2022-11-05T09:14:27.648Z,92.35
2022-11-05T09:16:02.574Z,92.02
2022-11-05T09:17:05.277Z,91.67
2022-11-05T09:18:08.191Z,91.90
2022-11-05T09:19:45.837Z,91.86
2022-11-05T09:20:48.906Z,91.54
2022-11-05T09:21:51.983Z,91.56
2022-11-05T09:23:34.877Z,90.44
2022-11-05T09:24:37.757Z,90.69
2022-11-05T09:25:40.840Z,90.63
2022-11-05T09:27:15.642Z,90.80
2022-11-05T09:28:22.874Z,90.22
2022-11-05T09:29:25.651Z,90.31
2022-11-05T09:31:00.892Z,90.49
2022-11-05T09:32:03.669Z,89.96
2022-11-05T09:33:06.477Z,89.40
2022-11-05T09:34:42.579Z,89.13
2022-11-05T09:35:45.457Z,89.04
2022-11-05T09:36:50.165Z,89.46
2022-11-05T09:38:25.065Z,89.19
2022-11-05T09:39:28.156Z,88.84
2022-11-05T09:40:31.155Z,88.91
2022-11-05T09:42:05.752Z,89.00
2022-11-05T09:43:09.072Z,89.19
2022-11-05T09:44:18.306Z,88.79
2022-11-05T09:45:53.218Z,88.80
2022-11-05T09:46:55.913Z,88.70
2022-11-05T09:47:58.748Z,88.89
2022-11-05T09:49:33.721Z,89.18
2022-11-05T09:50:36.486Z,88.63
2022-11-05T09:51:39.610Z,88.59
2022-11-05T09:53:14.594Z,88.48
2022-11-05T09:54:17.541Z,88.25
2022-11-05T09:55:20.436Z,88.26
2022-11-05T09:56:55.322Z,87.95
2022-11-05T09:57:58.351Z,87.46
2022-11-05T09:59:09.074Z,86.84
2022-11-05T10:00:17.476Z,86.98
2022-11-05T10:01:20.682Z,86.89
2022-11-05T10:02:24.814Z,87.34
2022-11-05T10:04:00.899Z,87.66
2022-11-05T10:05:09.438Z,86.92
2022-11-05T10:06:13.301Z,86.81
2022-11-05T10:07:48.179Z,87.15
2022-11-05T10:08:51.245Z,86.38
2022-11-05T10:09:54.075Z,86.25
2022-11-05T10:11:32.840Z,86.16
2022-11-05T10:12:35.635Z,86.40
2022-11-05T10:13:38.347Z,86.05
2022-11-05T10:15:12.931Z,86.19
2022-11-05T10:16:16.076Z,85.72
2022-11-05T10:17:18.798Z,85.10
2022-11-05T10:18:59.832Z,85.21
2022-11-05T10:20:02.604Z,85.60
2022-11-05T10:21:05.516Z,85.00
2022-11-05T10:23:20.019Z,84.02
2022-11-05T10:24:22.828Z,83.91
2022-11-05T10:25:25.817Z,83.17
2022-11-05T10:27:00.713Z,83.11
2022-11-05T10:28:03.650Z,83.44
2022-11-05T10:29:06.448Z,83.19
2022-11-05T10:30:41.315Z,82.79
2022-11-05T10:31:44.103Z,83.34
2022-11-05T10:32:46.944Z,83.29
2022-11-05T10:34:22.155Z,83.08
2022-11-05T10:35:24.934Z,83.31
2022-11-05T10:36:27.907Z,83.37
2022-11-05T10:38:02.797Z,82.70
2022-11-05T10:39:05.583Z,82.82
2022-11-05T10:40:08.555Z,83.01
2022-11-05T10:41:43.185Z,83.09
2022-11-05T10:42:45.992Z,83.45
2022-11-05T10:43:48.955Z,83.38
2022-11-05T10:45:32.294Z,82.27
2022-11-05T10:46:35.254Z,82.13
2022-11-05T10:47:38.134Z,82.51
2022-11-05T10:49:13.021Z,82.62
2022-11-05T10:50:16.137Z,82.48
2022-11-05T10:51:18.894Z,82.08
2022-11-05T10:52:53.681Z,81.89
2022-11-05T10:54:01.531Z,81.70
2022-11-05T10:55:05.144Z,81.72
2022-11-05T10:56:40.001Z,81.88
2022-11-05T10:57:42.986Z,81.63
2022-11-05T10:58:45.849Z,81.62
2022-11-05T11:00:18.242Z,82.15
2022-11-05T11:01:21.505Z,82.28
2022-11-05T11:02:25.812Z,82.74
2022-11-05T11:04:01.450Z,82.27
2022-11-05T11:05:04.344Z,80.85
2022-11-05T11:06:07.182Z,81.42
2022-11-05T11:07:41.774Z,81.41
2022-11-05T11:08:44.667Z,81.34
2022-11-05T11:09:47.614Z,81.05
2022-11-05T11:11:23.235Z,81.39
2022-11-05T11:12:26.020Z,81.50
2022-11-05T11:13:33.103Z,81.55
2022-11-05T11:15:07.862Z,81.22
2022-11-05T11:16:10.675Z,81.65
2022-11-05T11:17:13.590Z,82.51
2022-11-05T11:18:48.548Z,82.24
2022-11-05T11:19:51.505Z,82.27
2022-11-05T11:20:54.519Z,82.77
2022-11-05T11:22:29.227Z,82.91
2022-11-05T11:23:32.053Z,83.24
2022-11-05T11:24:39.268Z,82.63
2022-11-05T11:26:14.153Z,82.20
2022-11-05T11:27:17.059Z,82.69
2022-11-05T11:28:20.086Z,82.40
2022-11-05T11:29:55.482Z,82.51
2022-11-05T11:30:58.497Z,82.92
2022-11-05T11:32:01.319Z,83.05
2022-11-05T11:33:35.932Z,82.66
2022-11-05T11:34:38.828Z,82.61
2022-11-05T11:35:41.663Z,82.93
2022-11-05T11:37:23.845Z,81.63
2022-11-05T11:38:26.879Z,83.00
2022-11-05T11:39:29.781Z,83.16
2022-11-05T11:41:04.601Z,82.52
2022-11-05T11:42:07.555Z,82.35
2022-11-05T11:43:10.864Z,81.92
2022-11-05T11:44:45.740Z,81.59
2022-11-05T11:45:48.834Z,81.87
2022-11-05T11:47:01.153Z,81.92
2022-11-05T11:48:36.047Z,80.99
2022-11-05T11:49:38.820Z,81.70
2022-11-05T11:50:41.642Z,80.56
2022-11-05T11:52:16.396Z,80.75
2022-11-05T11:53:19.684Z,80.32
2022-11-05T11:54:25.865Z,80.01
2022-11-05T11:56:03.145Z,79.76
2022-11-05T11:57:05.907Z,79.95
2022-11-05T11:58:12.576Z,80.60
2022-11-05T12:00:18.009Z,80.15
2022-11-05T12:01:21.176Z,80.31
2022-11-05T12:02:24.878Z,80.59
2022-11-05T12:04:01.622Z,80.29
2022-11-05T12:05:04.261Z,79.92
2022-11-05T12:06:07.212Z,80.35
2022-11-05T12:07:42.049Z,80.01
2022-11-05T12:08:59.361Z,80.11
2022-11-05T12:10:06.842Z,80.61
2022-11-05T12:11:41.589Z,81.04
2022-11-05T12:12:44.414Z,80.97
2022-11-05T12:13:47.457Z,81.03
2022-11-05T12:15:26.991Z,80.63
2022-11-05T12:16:29.761Z,80.12
2022-11-05T12:17:32.725Z,80.84
2022-11-05T12:19:07.383Z,80.50
2022-11-05T12:20:10.352Z,80.73
2022-11-05T12:21:13.039Z,80.18
2022-11-05T12:23:17.672Z,79.57
2022-11-05T12:24:20.717Z,79.65
2022-11-05T12:25:23.668Z,79.53
2022-11-05T12:26:58.706Z,79.82
2022-11-05T12:28:01.592Z,80.84
2022-11-05T12:29:23.832Z,79.68
2022-11-05T12:31:05.102Z,77.60
2022-11-05T12:32:07.870Z,78.15
2022-11-05T12:33:12.074Z,78.55
2022-11-05T12:34:47.080Z,79.26
2022-11-05T12:35:57.855Z,79.71
2022-11-05T12:37:01.090Z,79.35
2022-11-05T12:38:35.858Z,79.10
2022-11-05T12:39:38.960Z,79.38
2022-11-05T12:40:41.887Z,79.45
2022-11-05T12:42:16.538Z,78.50
2022-11-05T12:43:20.293Z,79.20
2022-11-05T12:44:23.380Z,78.63
2022-11-05T12:45:58.160Z,77.83
2022-11-05T12:47:00.891Z,78.03
2022-11-05T12:48:03.945Z,78.62
2022-11-05T12:49:49.978Z,79.55
2022-11-05T12:50:52.914Z,79.72
2022-11-05T12:51:56.023Z,79.46
2022-11-05T12:53:30.757Z,79.89
2022-11-05T12:54:33.732Z,79.67
2022-11-05T12:55:36.707Z,79.28
2022-11-05T12:57:17.803Z,79.64
2022-11-05T12:58:20.791Z,79.89
2022-11-05T12:59:23.774Z,79.74
2022-11-05T13:00:17.613Z,79.33
2022-11-05T13:01:20.892Z,79.10
2022-11-05T13:02:24.993Z,79.75
2022-11-05T13:04:00.901Z,78.73
2022-11-05T13:05:03.815Z,79.37
2022-11-05T13:06:11.683Z,79.85
2022-11-05T13:07:46.522Z,79.52
2022-11-05T13:08:49.386Z,79.56
2022-11-05T13:09:52.296Z,80.13
2022-11-05T13:11:27.177Z,79.55
2022-11-05T13:12:29.958Z,79.17
2022-11-05T13:13:32.985Z,79.20
2022-11-05T13:15:07.639Z,79.48
2022-11-05T13:16:10.479Z,79.58
2022-11-05T13:17:13.422Z,79.74
2022-11-05T13:18:48.459Z,79.42
2022-11-05T13:19:51.209Z,79.41
2022-11-05T13:21:00.580Z,79.68
2022-11-05T13:22:35.677Z,79.64
2022-11-05T13:23:38.636Z,79.54
2022-11-05T13:24:41.608Z,79.83
2022-11-05T13:26:24.237Z,79.72
2022-11-05T13:27:27.220Z,79.74
2022-11-05T13:28:30.213Z,80.10
2022-11-05T13:30:05.509Z,79.68
2022-11-05T13:31:08.256Z,79.69
2022-11-05T13:32:10.965Z,80.00
2022-11-05T13:33:45.802Z,79.61
2022-11-05T13:34:48.697Z,79.86
2022-11-05T13:35:51.671Z,79.98
2022-11-05T13:37:26.551Z,80.15
2022-11-05T13:38:29.582Z,79.99
2022-11-05T13:39:32.564Z,80.10
2022-11-05T13:41:07.043Z,80.05
2022-11-05T13:42:09.787Z,80.38
2022-11-05T13:43:13.121Z,80.32
2022-11-05T13:44:48.201Z,80.37
2022-11-05T13:45:51.039Z,80.38
2022-11-05T13:47:00.181Z,80.50
2022-11-05T13:48:34.782Z,80.85
2022-11-05T13:49:37.537Z,81.21
2022-11-05T13:50:40.332Z,81.09
2022-11-05T13:52:19.882Z,81.06
2022-11-05T13:53:23.211Z,80.70
2022-11-05T13:54:26.152Z,80.96
2022-11-05T13:56:00.769Z,81.07
2022-11-05T13:57:03.837Z,80.91
2022-11-05T13:58:06.664Z,80.84
2022-11-05T13:59:41.641Z,81.19
2022-11-05T14:00:18.099Z,81.19
2022-11-05T14:01:21.519Z,81.13
2022-11-05T14:02:26.186Z,81.48
2022-11-05T14:04:02.163Z,81.42
2022-11-05T14:05:07.373Z,81.07
2022-11-05T14:06:10.227Z,81.43
2022-11-05T14:07:45.151Z,81.47
2022-11-05T14:08:47.837Z,81.61
2022-11-05T14:09:50.878Z,81.63
2022-11-05T14:11:25.942Z,81.35
2022-11-05T14:12:29.007Z,81.63
2022-11-05T14:13:31.829Z,81.61
2022-11-05T14:15:06.751Z,81.47
2022-11-05T14:16:09.552Z,81.56
2022-11-05T14:17:12.416Z,81.65
2022-11-05T14:18:47.113Z,82.06
2022-11-05T14:19:50.150Z,82.05
2022-11-05T14:20:53.114Z,82.06
2022-11-05T14:22:27.828Z,81.58
2022-11-05T14:23:30.961Z,81.76
2022-11-05T14:24:33.853Z,81.95
2022-11-05T14:26:08.369Z,82.12
2022-11-05T14:27:11.252Z,82.13
2022-11-05T14:28:14.253Z,81.85
2022-11-05T14:29:48.839Z,81.74
2022-11-05T14:30:52.081Z,81.70
2022-11-05T14:32:14.212Z,81.84
2022-11-05T14:33:49.412Z,82.19
2022-11-05T14:34:52.418Z,82.05
2022-11-05T14:35:55.403Z,81.97
2022-11-05T14:37:30.239Z,82.02
2022-11-05T14:38:33.147Z,82.06
2022-11-05T14:39:43.764Z,82.32
2022-11-05T14:41:18.309Z,82.32
2022-11-05T14:42:21.253Z,82.22
2022-11-05T14:43:23.966Z,82.26
2022-11-05T14:44:58.941Z,82.50
2022-11-05T14:46:01.862Z,82.59
2022-11-05T14:47:04.701Z,82.64
2022-11-05T14:48:39.863Z,82.73
2022-11-05T14:49:49.967Z,82.63
2022-11-05T14:50:52.842Z,82.65
2022-11-05T14:52:27.756Z,82.80
2022-11-05T14:53:30.757Z,83.00
2022-11-05T14:54:33.523Z,82.92
2022-11-05T14:56:08.125Z,82.94
2022-11-05T14:57:11.000Z,82.86
2022-11-05T14:58:13.983Z,82.87
2022-11-05T14:59:48.419Z,83.11
2022-11-05T15:00:17.614Z,83.11
2022-11-05T15:01:20.887Z,83.26
2022-11-05T15:02:25.059Z,83.19
2022-11-05T15:04:01.155Z,83.09
2022-11-05T15:05:04.421Z,83.12
2022-11-05T15:06:07.288Z,83.12
2022-11-05T15:07:42.361Z,83.19
2022-11-05T15:08:45.296Z,83.24
2022-11-05T15:09:48.152Z,83.33
2022-11-05T15:11:28.660Z,83.21
2022-11-05T15:12:31.716Z,83.27
2022-11-05T15:13:34.604Z,83.43
2022-11-05T15:15:09.331Z,83.58
2022-11-05T15:16:19.047Z,83.68
2022-11-05T15:17:21.927Z,83.72
2022-11-05T15:18:56.842Z,83.69
2022-11-05T15:19:59.760Z,83.81
2022-11-05T15:21:02.719Z,83.89
2022-11-05T15:22:37.425Z,83.89
2022-11-05T15:23:40.522Z,84.03
2022-11-05T15:24:43.732Z,84.02
2022-11-05T15:26:18.661Z,84.13
2022-11-05T15:27:21.546Z,84.15
2022-11-05T15:28:24.521Z,84.31
2022-11-05T15:29:59.338Z,84.26
2022-11-05T15:31:02.250Z,84.29
2022-11-05T15:32:05.053Z,84.33
2022-11-05T15:33:39.911Z,84.55
2022-11-05T15:34:42.838Z,84.55
2022-11-05T15:35:45.783Z,84.79
2022-11-05T15:37:20.611Z,84.96
2022-11-05T15:38:32.092Z,84.98
2022-11-05T15:40:15.641Z,85.05
2022-11-05T15:41:50.389Z,85.20
2022-11-05T15:42:53.435Z,85.23
2022-11-05T15:43:56.950Z,85.10
2022-11-05T15:45:31.828Z,85.18
2022-11-05T15:46:34.792Z,85.31
2022-11-05T15:47:37.922Z,85.31
2022-11-05T15:49:12.633Z,85.46
2022-11-05T15:50:20.652Z,85.44
2022-11-05T15:51:23.494Z,85.49
2022-11-05T15:53:09.513Z,85.57